This is the latest recevied weather packets stored in our database for station/object AG1T-20. If no packets are shown the sender has not sent any weather packets the latest 10 day(s).
| Time | Temp. | Humidity | Pressure | Rain* | Wind** | Luminosity | Snow |
|---|---|---|---|---|---|---|---|
| 1787628005 | 21.11° C | 54% | 1023 hPa | 0 mm | - | 0 W/m² | - |
| 1787627405 | 21.11° C | 54% | 1023 hPa | 0 mm | - | 0 W/m² | - |
| 1787626805 | 21.11° C | 56% | 1023 hPa | 0 mm | - | 0 W/m² | - |
| 1787626205 | 20.56° C | 57% | 1022.4 hPa | 0 mm | - | 0 W/m² | - |
| 1787625604 | 21.11° C | 55% | 1022.4 hPa | 0 mm | - | 0 W/m² | - |
| 1787625004 | 21.67° C | 52% | 1022.4 hPa | 0 mm | - | 0 W/m² | - |
| 1787624405 | 21.11° C | 54% | 1022.4 hPa | 0 mm | - | 0 W/m² | - |
| 1787623805 | 21.11° C | 53% | 1022.4 hPa | 0 mm | - | 4 W/m² | - |
| 1787623205 | 21.67° C | 52% | 1022.4 hPa | 0 mm | - | 6 W/m² | - |
| 1787622605 | 22.22° C | 48% | 1022.1 hPa | 0 mm | - | 9 W/m² | - |
| 1787622005 | 23.89° C | 43% | 1022.1 hPa | 0 mm | - | 17 W/m² | - |
| 1787621405 | 24.44° C | 42% | 1022.1 hPa | 0 mm | - | 29 W/m² | - |
| 1787620804 | 24.44° C | 44% | 1022.1 hPa | 0 mm | - | 38 W/m² | - |
| 1787620205 | 25° C | 44% | 1022.1 hPa | 0 mm | - | 40 W/m² | - |
| 1787619605 | 26.11° C | 39% | 1022.1 hPa | 0 mm | - | 35 W/m² | - |
| 1787619004 | 28.33° C | 27% | 1021.8 hPa | 0 mm | - | 47 W/m² | - |
| 1787618405 | 28.89° C | 27% | 1021.8 hPa | 0 mm | - | 64 W/m² | - |
| 1787617805 | 28.33° C | 27% | 1021.8 hPa | 0 mm | - | 80 W/m² | - |
| 1787617204 | 27.78° C | 28% | 1021.8 hPa | 0 mm | - | 76 W/m² | - |
| 1787616604 | 27.22° C | 31% | 1021.8 hPa | 0 mm | - | 52 W/m² | - |
| 1787616004 | 27.22° C | 32% | 1021.8 hPa | 0 mm | - | 73 W/m² | - |
| 1787615405 | 27.78° C | 30% | 1020.6 hPa | 0 mm | - | 130 W/m² | - |
| 1787614805 | 32.78° C | 27% | 1020.6 hPa | 0 mm | - | 215 W/m² | - |
| 1787614204 | 31.67° C | 26% | 1020.6 hPa | 0 mm | - | 156 W/m² | - |
| 1787613605 | 32.22° C | 27% | 1020.6 hPa | 0 mm | - | 164 W/m² | - |
* Rain latest hour (hover to see other rain measurements)
** Current wind speed in m/s (hover to see current wind gust speed)